createdAt,value
2024-01-28T00:00:00.431Z,-0.48
2024-01-28T00:02:28.220Z,-0.46
2024-01-28T00:04:55.990Z,-0.55
2024-01-28T00:07:23.541Z,-0.53
2024-01-28T00:09:51.134Z,-0.54
2024-01-28T00:12:18.800Z,-0.52
2024-01-28T00:14:46.537Z,-0.37
2024-01-28T00:17:14.390Z,0.10
2024-01-28T00:19:42.187Z,0.56
2024-01-28T00:22:09.807Z,0.34
2024-01-28T00:24:37.391Z,-0.01
2024-01-28T00:27:05.144Z,-0.19
2024-01-28T00:29:32.757Z,-0.40
2024-01-28T00:32:03.215Z,-0.47
2024-01-28T00:34:31.042Z,-0.50
2024-01-28T00:36:58.758Z,-0.53
2024-01-28T00:39:26.498Z,-0.51
2024-01-28T00:41:54.087Z,-0.41
2024-01-28T00:44:21.648Z,-0.37
2024-01-28T00:46:49.206Z,-0.41
2024-01-28T00:49:17.045Z,-0.41
2024-01-28T00:51:44.821Z,-0.39
2024-01-28T00:54:12.423Z,-0.43
2024-01-28T00:56:39.993Z,-0.44
2024-01-28T00:59:07.552Z,-0.40
2024-01-28T01:01:35.075Z,-0.40
2024-01-28T01:04:02.681Z,-0.40
2024-01-28T01:06:30.415Z,-0.47
2024-01-28T01:08:58.023Z,-0.53
2024-01-28T01:11:25.861Z,-0.58
2024-01-28T01:13:54.800Z,-0.54
2024-01-28T01:16:22.461Z,-0.55
2024-01-28T01:18:50.182Z,-0.55
2024-01-28T01:21:18.095Z,-0.56
2024-01-28T01:23:45.783Z,-0.55
2024-01-28T01:26:14.571Z,-0.46
2024-01-28T01:28:42.886Z,-0.48
2024-01-28T01:31:10.422Z,-0.43
2024-01-28T01:33:38.180Z,-0.49
2024-01-28T01:36:06.496Z,-0.53
2024-01-28T01:38:34.107Z,-0.51
2024-01-28T01:41:01.694Z,-0.39
2024-01-28T01:43:29.930Z,-0.34
2024-01-28T01:45:57.483Z,-0.28
2024-01-28T01:48:25.581Z,-0.23
2024-01-28T01:50:53.275Z,-0.21
2024-01-28T01:53:21.024Z,-0.19
2024-01-28T01:55:49.594Z,-0.20
2024-01-28T01:58:17.804Z,-0.17
2024-01-28T02:00:45.510Z,0.43
2024-01-28T02:03:13.570Z,0.04
2024-01-28T02:05:41.306Z,-0.11
2024-01-28T02:08:08.909Z,-0.03
2024-01-28T02:10:36.559Z,-0.10
2024-01-28T02:13:04.187Z,-0.03
2024-01-28T02:15:36.879Z,-0.13
2024-01-28T02:18:04.771Z,0.11
2024-01-28T02:20:32.462Z,0.37
2024-01-28T02:23:00.071Z,0.30
2024-01-28T02:25:27.620Z,-0.11
2024-01-28T02:27:55.183Z,-0.20
2024-01-28T02:30:23.575Z,-0.24
2024-01-28T02:32:52.414Z,-0.30
2024-01-28T02:35:20.203Z,-0.35
2024-01-28T02:37:49.281Z,-0.35
2024-01-28T02:40:16.926Z,-0.40
2024-01-28T02:42:45.010Z,-0.37
2024-01-28T02:45:12.571Z,-0.23
2024-01-28T02:47:40.294Z,-0.27
2024-01-28T02:50:08.720Z,-0.29
2024-01-28T02:52:36.350Z,-0.23
2024-01-28T02:55:04.065Z,-0.27
2024-01-28T02:57:31.861Z,-0.21
2024-01-28T03:00:00.354Z,-0.17
2024-01-28T03:02:27.956Z,-0.25
2024-01-28T03:04:55.518Z,-0.24
2024-01-28T03:07:23.324Z,0.04
2024-01-28T03:09:51.056Z,-0.19
2024-01-28T03:12:18.593Z,-0.20
2024-01-28T03:14:46.529Z,-0.20
2024-01-28T03:17:14.065Z,-0.25
2024-01-28T03:19:41.601Z,-0.30
2024-01-28T03:22:09.186Z,-0.29
2024-01-28T03:24:36.814Z,-0.27
2024-01-28T03:27:04.843Z,-0.25
2024-01-28T03:29:32.574Z,0.36
2024-01-28T03:32:00.170Z,0.04
2024-01-28T03:34:27.813Z,-0.16
2024-01-28T03:36:55.464Z,0.10
2024-01-28T03:39:23.040Z,-0.14
2024-01-28T03:41:50.949Z,-0.21
2024-01-28T03:44:23.957Z,-0.24
2024-01-28T03:46:51.847Z,-0.21
2024-01-28T03:49:19.537Z,-0.26
2024-01-28T03:51:47.998Z,-0.29
2024-01-28T03:54:15.603Z,-0.33
2024-01-28T03:56:43.209Z,-0.29
2024-01-28T03:59:10.813Z,-0.25
2024-01-28T04:01:38.562Z,-0.26
2024-01-28T04:04:06.294Z,-0.28
2024-01-28T04:06:34.768Z,-0.32
2024-01-28T04:09:02.543Z,-0.18
2024-01-28T04:11:30.113Z,-0.37
2024-01-28T04:13:57.785Z,-0.35
2024-01-28T04:16:25.405Z,-0.39
2024-01-28T04:18:53.737Z,0.06
2024-01-28T04:21:21.793Z,-0.26
2024-01-28T04:23:49.472Z,-0.28
2024-01-28T04:26:17.186Z,-0.44
2024-01-28T04:28:45.067Z,-0.39
2024-01-28T04:31:14.358Z,-0.33
2024-01-28T04:33:43.314Z,-0.45
2024-01-28T04:36:11.700Z,-0.19
2024-01-28T04:38:39.447Z,-0.47
2024-01-28T04:41:07.185Z,-0.04
2024-01-28T04:43:34.924Z,-0.24
2024-01-28T04:46:02.675Z,-0.36
2024-01-28T04:48:30.514Z,-0.38
2024-01-28T04:50:58.368Z,-0.34
2024-01-28T04:53:26.078Z,-0.54
2024-01-28T04:55:53.776Z,-0.63
2024-01-28T04:58:21.465Z,-0.68
2024-01-28T05:00:49.380Z,-0.68
2024-01-28T05:03:18.214Z,-0.69
2024-01-28T05:05:46.056Z,-0.70
2024-01-28T05:08:13.811Z,-0.47
2024-01-28T05:10:41.443Z,-0.65
2024-01-28T05:13:09.076Z,-0.48
2024-01-28T05:15:37.164Z,-0.68
2024-01-28T05:18:05.104Z,-0.76
2024-01-28T05:20:32.806Z,-0.80
2024-01-28T05:23:01.171Z,-0.47
2024-01-28T05:25:29.528Z,-0.87
2024-01-28T05:27:57.295Z,-0.77
2024-01-28T05:30:24.987Z,-0.56
2024-01-28T05:32:52.584Z,-0.70
2024-01-28T05:35:20.268Z,-0.47
2024-01-28T05:37:47.794Z,-0.48
2024-01-28T05:40:16.419Z,-0.43
2024-01-28T05:42:44.237Z,-0.45
2024-01-28T05:45:11.905Z,-0.68
2024-01-28T05:47:39.485Z,-0.44
2024-01-28T05:50:07.073Z,-0.61
2024-01-28T05:52:34.679Z,-0.58
2024-01-28T05:55:02.260Z,0.12
2024-01-28T05:57:30.522Z,-0.05
2024-01-28T05:59:58.127Z,-0.23
2024-01-28T06:02:25.742Z,-0.21
2024-01-28T06:04:53.362Z,0.14
2024-01-28T06:07:20.969Z,0.20
2024-01-28T06:09:48.631Z,-0.15
2024-01-28T06:12:17.512Z,-0.12
2024-01-28T06:14:45.211Z,0.12
2024-01-28T06:17:12.735Z,-0.23
2024-01-28T06:19:40.279Z,-0.36
2024-01-28T06:22:07.864Z,-0.46
2024-01-28T06:24:36.778Z,-0.40
2024-01-28T06:27:04.825Z,-0.25
2024-01-28T06:29:32.423Z,0.28
2024-01-28T06:31:59.944Z,-0.09
2024-01-28T06:34:27.537Z,-0.35
2024-01-28T06:36:55.109Z,-0.59
2024-01-28T06:39:22.818Z,-0.72
2024-01-28T06:41:51.417Z,-0.89
2024-01-28T06:44:19.058Z,-0.95
2024-01-28T06:46:46.635Z,-0.96
2024-01-28T06:49:17.751Z,-1.09
2024-01-28T06:51:47.426Z,-1.14
2024-01-28T06:54:15.220Z,-1.13
2024-01-28T06:56:42.868Z,-1.12
2024-01-28T06:59:10.586Z,-1.14
2024-01-28T07:01:38.223Z,-1.15
2024-01-28T07:04:05.885Z,-0.84
2024-01-28T07:06:33.740Z,-0.98
2024-01-28T07:09:01.486Z,-1.06
2024-01-28T07:11:29.102Z,-1.04
2024-01-28T07:13:56.625Z,-1.06
2024-01-28T07:16:24.276Z,-1.07
2024-01-28T07:18:53.587Z,-1.09
2024-01-28T07:21:21.341Z,-1.07
2024-01-28T07:23:49.018Z,-1.04
2024-01-28T07:26:16.541Z,-0.79
2024-01-28T07:28:44.380Z,-0.93
2024-01-28T07:31:11.936Z,-0.96
2024-01-28T07:33:39.748Z,-0.94
2024-01-28T07:36:08.254Z,-1.03
2024-01-28T07:38:35.886Z,-0.89
2024-01-28T07:41:04.183Z,-0.80
2024-01-28T07:43:32.016Z,-0.86
2024-01-28T07:45:59.801Z,-0.83
2024-01-28T07:48:27.569Z,-0.84
2024-01-28T07:50:56.294Z,-0.87
2024-01-28T07:53:23.851Z,-0.86
2024-01-28T07:55:51.675Z,-0.86
2024-01-28T07:58:19.234Z,-0.83
2024-01-28T08:00:47.138Z,-0.53
2024-01-28T08:03:14.754Z,-0.69
2024-01-28T08:05:42.786Z,-0.75
2024-01-28T08:08:12.646Z,-0.72
2024-01-28T08:10:42.088Z,-0.75
2024-01-28T08:13:09.670Z,-0.75
2024-01-28T08:15:37.754Z,-0.74
2024-01-28T08:18:05.606Z,-0.61
2024-01-28T08:20:33.170Z,-0.60
2024-01-28T08:23:00.790Z,-0.65
2024-01-28T08:25:28.397Z,-0.60
2024-01-28T08:27:56.029Z,-0.53
2024-01-28T08:30:24.634Z,-0.58
2024-01-28T08:32:52.310Z,-0.44
2024-01-28T08:35:20.180Z,0.00
2024-01-28T08:37:47.760Z,-0.34
2024-01-28T08:40:15.863Z,0.30
2024-01-28T08:42:43.494Z,0.43
2024-01-28T08:45:11.118Z,0.58
2024-01-28T08:47:38.737Z,0.67
2024-01-28T08:50:06.587Z,0.52
2024-01-28T08:52:34.128Z,0.84
2024-01-28T08:55:01.731Z,1.30
2024-01-28T08:57:29.419Z,0.95
2024-01-28T08:59:57.010Z,1.13
2024-01-28T09:02:25.142Z,1.73
2024-01-28T09:04:53.109Z,1.81
2024-01-28T09:07:20.916Z,2.79
2024-01-28T09:09:48.627Z,3.44
2024-01-28T09:12:16.401Z,3.20
2024-01-28T09:14:44.005Z,3.73
2024-01-28T09:17:11.816Z,3.25
2024-01-28T09:19:39.446Z,3.64
2024-01-28T09:22:07.131Z,3.59
2024-01-28T09:24:34.898Z,3.54
2024-01-28T09:27:03.079Z,4.03
2024-01-28T09:29:31.702Z,4.38
2024-01-28T09:32:00.530Z,4.93
2024-01-28T09:34:29.842Z,4.50
2024-01-28T09:36:57.503Z,4.32
2024-01-28T09:39:25.284Z,4.10
2024-01-28T09:41:55.563Z,5.24
2024-01-28T09:44:23.120Z,5.04
2024-01-28T09:46:51.635Z,4.82
2024-01-28T09:49:20.685Z,5.48
2024-01-28T09:51:48.424Z,4.77
2024-01-28T09:54:16.146Z,5.14
2024-01-28T09:56:44.597Z,5.52
2024-01-28T09:59:14.107Z,5.30
2024-01-28T10:01:44.144Z,6.11
2024-01-28T10:04:12.159Z,6.56
2024-01-28T10:06:39.921Z,6.57
2024-01-28T10:09:07.509Z,6.56
2024-01-28T10:11:35.220Z,7.03
2024-01-28T10:14:02.826Z,7.25
2024-01-28T10:16:36.180Z,7.00
2024-01-28T10:19:04.555Z,6.66
2024-01-28T10:21:32.952Z,5.98
2024-01-28T10:24:00.806Z,6.05
2024-01-28T10:26:28.346Z,5.89
2024-01-28T10:28:56.052Z,6.28
2024-01-28T10:31:24.197Z,7.15
2024-01-28T10:33:51.926Z,6.77
2024-01-28T10:36:19.640Z,6.61
2024-01-28T10:38:47.676Z,7.04
2024-01-28T10:41:18.863Z,6.94
2024-01-28T10:44:12.891Z,7.03
2024-01-28T10:46:41.171Z,6.79
2024-01-28T10:49:09.591Z,7.11
2024-01-28T10:51:39.185Z,6.64
2024-01-28T10:54:09.141Z,7.05
2024-01-28T10:56:40.608Z,6.55
2024-01-28T10:59:08.805Z,6.46
2024-01-28T11:01:37.195Z,6.26
2024-01-28T11:04:06.142Z,6.35
2024-01-28T11:06:34.566Z,6.15
2024-01-28T11:09:04.749Z,6.54
2024-01-28T11:11:32.317Z,6.65
2024-01-28T11:14:05.961Z,6.93
2024-01-28T11:16:33.512Z,6.89
2024-01-28T11:19:07.479Z,7.45
2024-01-28T11:21:35.604Z,7.28
2024-01-28T11:24:07.494Z,7.78
2024-01-28T11:26:45.366Z,7.70
2024-01-28T11:29:13.441Z,7.98
2024-01-28T11:31:41.972Z,8.15
2024-01-28T11:34:23.087Z,7.48
2024-01-28T11:36:55.391Z,7.86
2024-01-28T11:39:44.036Z,8.18
2024-01-28T11:42:11.818Z,7.80
2024-01-28T11:44:42.278Z,7.63
2024-01-28T11:47:14.737Z,8.24
2024-01-28T11:49:45.912Z,8.13
2024-01-28T11:52:13.704Z,7.83
2024-01-28T11:54:45.028Z,8.01
2024-01-28T11:57:12.852Z,7.63
2024-01-28T11:59:40.687Z,7.33
2024-01-28T12:02:09.725Z,7.63
2024-01-28T12:04:40.323Z,7.49
2024-01-28T12:07:09.264Z,7.55
2024-01-28T12:09:38.696Z,7.39
2024-01-28T12:12:07.909Z,7.72
2024-01-28T12:14:35.635Z,7.62
2024-01-28T12:17:03.277Z,7.71
2024-01-28T12:19:30.926Z,7.97
2024-01-28T12:21:59.767Z,8.37
2024-01-28T12:24:28.137Z,8.24
2024-01-28T12:26:56.814Z,8.17
2024-01-28T12:29:24.616Z,8.16
2024-01-28T12:31:52.493Z,8.24
2024-01-28T12:34:20.490Z,8.52
2024-01-28T12:36:48.370Z,8.62
2024-01-28T12:39:16.327Z,8.31
2024-01-28T12:41:44.083Z,8.34
2024-01-28T12:44:11.589Z,8.13
2024-01-28T12:46:39.259Z,7.99
2024-01-28T12:49:10.291Z,7.74
2024-01-28T12:51:40.133Z,7.91
2024-01-28T12:54:09.566Z,7.48
2024-01-28T12:56:37.376Z,7.47
2024-01-28T12:59:05.228Z,7.33
2024-01-28T13:01:33.191Z,7.64
2024-01-28T13:04:01.094Z,7.48
2024-01-28T13:06:29.024Z,7.31
2024-01-28T13:08:57.695Z,7.34
2024-01-28T13:11:27.929Z,7.47
2024-01-28T13:13:55.718Z,7.78
2024-01-28T13:16:24.958Z,7.47
2024-01-28T13:18:53.062Z,7.62
2024-01-28T13:21:20.866Z,7.34
2024-01-28T13:23:48.496Z,7.53
2024-01-28T13:26:20.223Z,7.81
2024-01-28T13:28:47.960Z,7.55
2024-01-28T13:31:15.673Z,7.56
2024-01-28T13:33:43.446Z,7.59
2024-01-28T13:36:12.625Z,7.49
2024-01-28T13:38:41.085Z,7.43
2024-01-28T13:41:08.900Z,7.60
2024-01-28T13:43:37.908Z,7.48
2024-01-28T13:46:05.641Z,7.67
2024-01-28T13:48:33.418Z,7.52
2024-01-28T13:51:01.051Z,7.41
2024-01-28T13:53:28.628Z,7.42
2024-01-28T13:55:56.282Z,7.43
2024-01-28T13:58:23.902Z,7.34
2024-01-28T14:00:51.464Z,7.45
2024-01-28T14:03:19.065Z,7.63
2024-01-28T14:05:46.687Z,7.87
2024-01-28T14:08:14.732Z,7.53
2024-01-28T14:10:42.759Z,7.82
2024-01-28T14:13:11.440Z,7.88
2024-01-28T14:15:39.887Z,7.56
2024-01-28T14:18:08.977Z,7.43
2024-01-28T14:20:36.847Z,7.61
2024-01-28T14:23:04.749Z,7.57
2024-01-28T14:25:32.476Z,7.49
2024-01-28T14:28:00.556Z,7.52
2024-01-28T14:30:28.422Z,7.68
2024-01-28T14:32:56.254Z,7.74
2024-01-28T14:35:24.006Z,7.54
2024-01-28T14:37:51.967Z,7.56
2024-01-28T14:40:19.808Z,7.64
2024-01-28T14:42:47.780Z,7.88
2024-01-28T14:45:15.908Z,7.60
2024-01-28T14:47:44.627Z,7.54
2024-01-28T14:50:12.533Z,7.50
2024-01-28T14:52:40.221Z,7.48
2024-01-28T14:55:08.406Z,7.37
2024-01-28T14:57:36.658Z,7.34
2024-01-28T15:00:05.904Z,7.42
2024-01-28T15:02:34.079Z,7.70
2024-01-28T15:05:06.278Z,7.62
2024-01-28T15:07:34.137Z,7.55
2024-01-28T15:10:02.465Z,7.40
2024-01-28T15:12:30.361Z,7.25
2024-01-28T15:14:58.007Z,7.05
2024-01-28T15:17:28.931Z,7.00
2024-01-28T15:19:56.986Z,7.07
2024-01-28T15:22:27.537Z,6.97
2024-01-28T15:24:58.768Z,6.82
2024-01-28T15:27:27.829Z,6.77
2024-01-28T15:29:55.706Z,6.59
2024-01-28T15:32:23.440Z,6.55
2024-01-28T15:34:52.164Z,6.47
2024-01-28T15:37:19.981Z,6.33
2024-01-28T15:39:47.782Z,6.22
2024-01-28T15:42:15.569Z,6.19
2024-01-28T15:44:43.364Z,6.18
2024-01-28T15:47:11.372Z,5.96
2024-01-28T15:49:39.233Z,5.88
2024-01-28T15:52:07.049Z,5.81
2024-01-28T15:54:34.838Z,5.75
2024-01-28T15:57:02.566Z,5.63
2024-01-28T15:59:30.282Z,5.63
2024-01-28T16:01:58.054Z,5.72
2024-01-28T16:04:25.855Z,5.62
2024-01-28T16:06:53.531Z,5.51
2024-01-28T16:09:21.234Z,5.48
2024-01-28T16:11:48.835Z,5.40
2024-01-28T16:14:16.421Z,5.40
2024-01-28T16:16:44.221Z,5.37
2024-01-28T16:19:14.639Z,5.46
2024-01-28T16:21:42.693Z,5.29
2024-01-28T16:24:10.370Z,5.25
2024-01-28T16:26:37.887Z,5.19
2024-01-28T16:29:05.494Z,5.11
2024-01-28T16:31:33.261Z,5.16
2024-01-28T16:34:01.025Z,5.06
2024-01-28T16:36:28.698Z,4.99
2024-01-28T16:38:56.435Z,5.02
2024-01-28T16:41:25.768Z,4.97
2024-01-28T16:43:53.457Z,4.94
2024-01-28T16:46:21.127Z,4.93
2024-01-28T16:48:49.069Z,4.85
2024-01-28T16:51:16.937Z,4.86
2024-01-28T16:53:44.705Z,4.76
2024-01-28T16:56:12.515Z,4.70
2024-01-28T16:58:41.226Z,4.61
2024-01-28T17:01:10.644Z,4.53
2024-01-28T17:03:38.641Z,4.53
2024-01-28T17:06:06.950Z,4.45
2024-01-28T17:08:34.799Z,4.43
2024-01-28T17:11:02.544Z,4.45
2024-01-28T17:13:34.552Z,4.46
2024-01-28T17:16:04.519Z,4.43
2024-01-28T17:18:35.780Z,4.55
2024-01-28T17:21:03.665Z,4.61
2024-01-28T17:23:31.359Z,4.61
2024-01-28T17:25:59.252Z,4.58
2024-01-28T17:28:27.110Z,4.45
2024-01-28T17:30:56.572Z,4.53
2024-01-28T17:33:24.514Z,4.54
2024-01-28T17:35:52.502Z,4.49
2024-01-28T17:38:20.658Z,4.53
2024-01-28T17:40:48.998Z,4.44
2024-01-28T17:43:16.830Z,4.47
2024-01-28T17:45:45.515Z,4.33
2024-01-28T17:48:13.387Z,4.40
2024-01-28T17:50:43.434Z,4.28
2024-01-28T17:53:11.744Z,4.15
2024-01-28T17:55:39.846Z,4.15
2024-01-28T17:58:07.511Z,4.21
2024-01-28T18:00:35.265Z,4.18
2024-01-28T18:03:03.443Z,4.21
2024-01-28T18:05:32.206Z,4.23
2024-01-28T18:08:00.058Z,4.23
2024-01-28T18:10:27.860Z,4.18
2024-01-28T18:12:55.691Z,4.22
2024-01-28T18:15:23.529Z,4.15
2024-01-28T18:17:52.987Z,4.17
2024-01-28T18:20:20.910Z,4.19
2024-01-28T18:22:50.080Z,4.23
2024-01-28T18:25:17.838Z,4.18
2024-01-28T18:27:45.738Z,4.14
2024-01-28T18:30:14.055Z,4.11
2024-01-28T18:32:41.868Z,4.07
2024-01-28T18:35:09.917Z,4.04
2024-01-28T18:37:37.673Z,4.05
2024-01-28T18:40:06.150Z,4.08
2024-01-28T18:42:34.843Z,4.05
2024-01-28T18:45:03.639Z,3.98
2024-01-28T18:47:31.618Z,4.02
2024-01-28T18:49:59.632Z,4.06
2024-01-28T18:52:27.751Z,4.10
2024-01-28T18:54:55.739Z,4.12
2024-01-28T18:57:23.648Z,4.19
2024-01-28T18:59:51.473Z,4.21
2024-01-28T19:02:21.701Z,4.28
2024-01-28T19:04:49.521Z,4.42
2024-01-28T19:07:17.332Z,4.44
2024-01-28T19:09:46.697Z,4.42
2024-01-28T19:12:14.649Z,4.44
2024-01-28T19:14:42.409Z,4.38
2024-01-28T19:17:10.104Z,4.57
2024-01-28T19:19:38.234Z,4.78
2024-01-28T19:22:05.987Z,5.29
2024-01-28T19:24:33.869Z,5.15
2024-01-28T19:27:01.668Z,5.06
2024-01-28T19:29:29.448Z,5.48
2024-01-28T19:31:59.715Z,5.41
2024-01-28T19:34:27.730Z,5.33
2024-01-28T19:36:55.756Z,5.21
2024-01-28T19:39:25.808Z,5.49
2024-01-28T19:41:53.742Z,5.45
2024-01-28T19:44:21.482Z,5.48
2024-01-28T19:46:49.163Z,5.39
2024-01-28T19:49:17.046Z,5.35
2024-01-28T19:51:44.864Z,5.51
2024-01-28T19:54:12.713Z,5.21
2024-01-28T19:56:40.307Z,5.18
2024-01-28T19:59:08.173Z,5.42
2024-01-28T20:01:36.247Z,5.63
2024-01-28T20:04:05.190Z,5.30
2024-01-28T20:06:37.427Z,5.21
2024-01-28T20:09:06.093Z,5.44
2024-01-28T20:11:35.074Z,5.26
2024-01-28T20:14:04.422Z,4.96
2024-01-28T20:16:32.194Z,5.11
2024-01-28T20:19:00.101Z,5.32
2024-01-28T20:21:28.531Z,5.32
2024-01-28T20:23:56.542Z,5.06
2024-01-28T20:26:24.212Z,4.91
2024-01-28T20:28:52.700Z,4.77
2024-01-28T20:31:26.274Z,4.77
2024-01-28T20:33:54.425Z,4.88
2024-01-28T20:36:23.755Z,5.05
2024-01-28T20:38:51.976Z,5.09
2024-01-28T20:41:21.524Z,4.96
2024-01-28T20:43:49.334Z,5.22
2024-01-28T20:46:17.150Z,4.84
2024-01-28T20:48:46.955Z,5.06
2024-01-28T20:51:14.783Z,4.88
2024-01-28T20:53:42.543Z,4.76
2024-01-28T20:56:11.981Z,4.65
2024-01-28T20:58:40.903Z,4.65
2024-01-28T21:01:09.326Z,4.69
2024-01-28T21:03:38.119Z,4.74
2024-01-28T21:06:05.944Z,4.85
2024-01-28T21:08:34.047Z,5.02
2024-01-28T21:11:11.450Z,4.86
2024-01-28T21:13:39.191Z,4.91
2024-01-28T21:16:07.467Z,5.02
2024-01-28T21:18:35.459Z,5.00
2024-01-28T21:21:03.299Z,5.18
2024-01-28T21:23:31.050Z,5.23
2024-01-28T21:25:58.713Z,4.86
2024-01-28T21:28:27.961Z,4.71
2024-01-28T21:30:56.106Z,4.83
2024-01-28T21:33:26.213Z,4.85
2024-01-28T21:35:54.089Z,4.80
2024-01-28T21:38:21.728Z,4.92
2024-01-28T21:40:49.321Z,4.87
2024-01-28T21:43:17.116Z,4.85
2024-01-28T21:45:45.068Z,5.35
2024-01-28T21:48:12.931Z,4.92
2024-01-28T21:50:40.656Z,4.77
2024-01-28T21:53:08.382Z,4.48
2024-01-28T21:55:36.162Z,4.79
2024-01-28T21:58:04.097Z,4.81
2024-01-28T22:00:33.720Z,5.22
2024-01-28T22:03:01.545Z,4.64
2024-01-28T22:05:29.256Z,5.07
2024-01-28T22:07:57.003Z,4.84
2024-01-28T22:10:24.568Z,4.82
2024-01-28T22:12:52.391Z,4.81
2024-01-28T22:15:20.281Z,4.63
2024-01-28T22:17:47.981Z,4.50
2024-01-28T22:20:15.774Z,4.24
2024-01-28T22:22:43.432Z,3.89
2024-01-28T22:25:11.387Z,3.73
2024-01-28T22:27:39.509Z,3.86
2024-01-28T22:30:08.400Z,4.50
2024-01-28T22:32:37.123Z,4.84
2024-01-28T22:35:05.783Z,4.48
2024-01-28T22:37:33.483Z,4.38
2024-01-28T22:40:01.136Z,4.40
2024-01-28T22:42:29.026Z,5.16
2024-01-28T22:44:56.628Z,4.53
2024-01-28T22:47:24.793Z,3.99
2024-01-28T22:49:52.466Z,4.33
2024-01-28T22:52:20.050Z,4.87
2024-01-28T22:54:47.696Z,4.16
2024-01-28T22:57:16.230Z,3.91
2024-01-28T22:59:44.105Z,3.81
2024-01-28T23:02:21.585Z,3.65
2024-01-28T23:04:49.143Z,3.65
2024-01-28T23:07:16.681Z,3.49
2024-01-28T23:09:44.366Z,3.80
2024-01-28T23:12:12.096Z,3.80
2024-01-28T23:14:39.697Z,3.71
2024-01-28T23:17:07.197Z,3.49
2024-01-28T23:19:35.231Z,3.96
2024-01-28T23:22:03.333Z,4.06
2024-01-28T23:24:31.507Z,4.07
2024-01-28T23:26:59.155Z,3.92
2024-01-28T23:29:27.494Z,3.92
2024-01-28T23:31:54.970Z,3.76
2024-01-28T23:34:22.698Z,4.02
2024-01-28T23:36:50.416Z,3.84
2024-01-28T23:39:18.094Z,3.78
2024-01-28T23:41:46.508Z,3.64
2024-01-28T23:44:17.488Z,3.97
2024-01-28T23:46:45.096Z,4.27
2024-01-28T23:49:14.517Z,4.30
2024-01-28T23:51:45.878Z,4.65
2024-01-28T23:54:13.831Z,4.22
2024-01-28T23:56:41.618Z,3.68
2024-01-28T23:59:09.602Z,3.36
